sensor_id;sensor_type;location;lat;lon;timestamp;temperature;humidity
35325;DHT22;35135;47.510;19.036;2022-09-16T00:01:33;23.80;61.50
35325;DHT22;35135;47.510;19.036;2022-09-16T00:03:59;23.80;61.60
35325;DHT22;35135;47.510;19.036;2022-09-16T00:06:27;23.80;61.50
35325;DHT22;35135;47.510;19.036;2022-09-16T00:08:58;23.80;61.30
35325;DHT22;35135;47.510;19.036;2022-09-16T00:11:25;23.80;61.10
35325;DHT22;35135;47.510;19.036;2022-09-16T00:13:51;23.70;61.40
35325;DHT22;35135;47.510;19.036;2022-09-16T00:16:24;23.80;61.50
35325;DHT22;35135;47.510;19.036;2022-09-16T00:18:56;23.80;61.40
35325;DHT22;35135;47.510;19.036;2022-09-16T00:21:23;23.80;61.10
35325;DHT22;35135;47.510;19.036;2022-09-16T00:23:49;23.80;61.30
35325;DHT22;35135;47.510;19.036;2022-09-16T00:26:15;23.80;61.20
35325;DHT22;35135;47.510;19.036;2022-09-16T00:28:41;23.80;60.90
35325;DHT22;35135;47.510;19.036;2022-09-16T00:31:06;23.70;61.00
35325;DHT22;35135;47.510;19.036;2022-09-16T00:33:32;23.70;61.20
35325;DHT22;35135;47.510;19.036;2022-09-16T00:36:09;23.80;61.10
35325;DHT22;35135;47.510;19.036;2022-09-16T00:38:36;23.80;61.00
35325;DHT22;35135;47.510;19.036;2022-09-16T00:41:02;23.80;61.10
35325;DHT22;35135;47.510;19.036;2022-09-16T00:43:28;23.80;61.10
35325;DHT22;35135;47.510;19.036;2022-09-16T00:46:01;23.80;60.70
35325;DHT22;35135;47.510;19.036;2022-09-16T00:48:30;23.80;60.80
35325;DHT22;35135;47.510;19.036;2022-09-16T00:51:03;23.80;60.60
35325;DHT22;35135;47.510;19.036;2022-09-16T00:53:57;23.80;60.50
35325;DHT22;35135;47.510;19.036;2022-09-16T00:56:25;23.80;60.70
35325;DHT22;35135;47.510;19.036;2022-09-16T00:59:05;23.70;60.50
35325;DHT22;35135;47.510;19.036;2022-09-16T01:01:33;23.70;60.60
35325;DHT22;35135;47.510;19.036;2022-09-16T01:04:03;23.70;60.70
35325;DHT22;35135;47.510;19.036;2022-09-16T01:06:31;23.70;60.10
35325;DHT22;35135;47.510;19.036;2022-09-16T01:09:00;23.60;60.90
35325;DHT22;35135;47.510;19.036;2022-09-16T01:11:26;23.50;60.00
35325;DHT22;35135;47.510;19.036;2022-09-16T01:13:52;23.50;60.70
35325;DHT22;35135;47.510;19.036;2022-09-16T01:16:29;23.40;60.50
35325;DHT22;35135;47.510;19.036;2022-09-16T01:19:38;23.30;61.10
35325;DHT22;35135;47.510;19.036;2022-09-16T01:30:30;23.40;61.00
35325;DHT22;35135;47.510;19.036;2022-09-16T01:33:02;23.50;61.10
35325;DHT22;35135;47.510;19.036;2022-09-16T01:41:18;23.60;60.20
35325;DHT22;35135;47.510;19.036;2022-09-16T01:54:44;23.60;60.40
35325;DHT22;35135;47.510;19.036;2022-09-16T01:57:20;23.60;59.70
35325;DHT22;35135;47.510;19.036;2022-09-16T01:59:59;23.50;60.70
35325;DHT22;35135;47.510;19.036;2022-09-16T02:02:38;23.50;60.40
35325;DHT22;35135;47.510;19.036;2022-09-16T02:05:10;23.50;60.50
35325;DHT22;35135;47.510;19.036;2022-09-16T02:07:41;23.50;60.10
35325;DHT22;35135;47.510;19.036;2022-09-16T02:10:21;23.50;60.40
35325;DHT22;35135;47.510;19.036;2022-09-16T02:12:49;23.50;60.30
35325;DHT22;35135;47.510;19.036;2022-09-16T02:15:18;23.60;60.20
35325;DHT22;35135;47.510;19.036;2022-09-16T02:17:54;23.60;60.00
35325;DHT22;35135;47.510;19.036;2022-09-16T02:20:25;23.60;60.00
35325;DHT22;35135;47.510;19.036;2022-09-16T02:23:00;23.60;59.50
35325;DHT22;35135;47.510;19.036;2022-09-16T02:25:27;23.50;60.20
35325;DHT22;35135;47.510;19.036;2022-09-16T02:27:54;23.60;59.90
35325;DHT22;35135;47.510;19.036;2022-09-16T02:30:22;23.50;59.90
35325;DHT22;35135;47.510;19.036;2022-09-16T02:33:02;23.50;59.00
35325;DHT22;35135;47.510;19.036;2022-09-16T02:35:31;23.50;60.00
35325;DHT22;35135;47.510;19.036;2022-09-16T02:38:11;23.50;59.80
35325;DHT22;35135;47.510;19.036;2022-09-16T02:40:48;23.50;59.70
35325;DHT22;35135;47.510;19.036;2022-09-16T02:43:15;23.40;59.30
35325;DHT22;35135;47.510;19.036;2022-09-16T02:51:31;23.20;59.10
35325;DHT22;35135;47.510;19.036;2022-09-16T02:56:36;23.10;59.50
35325;DHT22;35135;47.510;19.036;2022-09-16T02:59:05;23.00;59.10
35325;DHT22;35135;47.510;19.036;2022-09-16T03:01:34;22.90;60.40
35325;DHT22;35135;47.510;19.036;2022-09-16T03:04:01;22.90;60.20
35325;DHT22;35135;47.510;19.036;2022-09-16T03:06:27;22.90;60.60
35325;DHT22;35135;47.510;19.036;2022-09-16T03:09:01;22.90;60.60
35325;DHT22;35135;47.510;19.036;2022-09-16T03:27:49;23.10;59.70
35325;DHT22;35135;47.510;19.036;2022-09-16T03:30:16;23.10;59.40
35325;DHT22;35135;47.510;19.036;2022-09-16T03:32:52;23.10;58.40
35325;DHT22;35135;47.510;19.036;2022-09-16T03:37:52;23.10;58.90
35325;DHT22;35135;47.510;19.036;2022-09-16T03:40:19;23.10;58.90
35325;DHT22;35135;47.510;19.036;2022-09-16T03:42:45;23.10;58.90
35325;DHT22;35135;47.510;19.036;2022-09-16T03:45:19;23.10;58.50
35325;DHT22;35135;47.510;19.036;2022-09-16T03:47:46;23.00;58.10
35325;DHT22;35135;47.510;19.036;2022-09-16T03:50:14;23.00;58.20
35325;DHT22;35135;47.510;19.036;2022-09-16T03:52:40;22.90;59.00
35325;DHT22;35135;47.510;19.036;2022-09-16T03:55:06;22.90;58.90
35325;DHT22;35135;47.510;19.036;2022-09-16T03:57:33;22.90;58.90
35325;DHT22;35135;47.510;19.036;2022-09-16T03:59:59;23.00;58.90
35325;DHT22;35135;47.510;19.036;2022-09-16T04:02:24;23.00;58.70
35325;DHT22;35135;47.510;19.036;2022-09-16T04:04:50;23.10;58.90
35325;DHT22;35135;47.510;19.036;2022-09-16T04:07:16;23.10;58.40
35325;DHT22;35135;47.510;19.036;2022-09-16T04:09:42;23.10;58.40
35325;DHT22;35135;47.510;19.036;2022-09-16T04:12:07;23.10;58.30
35325;DHT22;35135;47.510;19.036;2022-09-16T04:14:34;23.10;58.30
35325;DHT22;35135;47.510;19.036;2022-09-16T04:17:00;23.10;58.00
35325;DHT22;35135;47.510;19.036;2022-09-16T04:19:25;23.10;57.90
35325;DHT22;35135;47.510;19.036;2022-09-16T04:21:51;23.00;58.10
35325;DHT22;35135;47.510;19.036;2022-09-16T04:24:17;23.10;57.80
35325;DHT22;35135;47.510;19.036;2022-09-16T04:26:43;23.00;57.20
35325;DHT22;35135;47.510;19.036;2022-09-16T04:29:09;23.00;58.20
35325;DHT22;35135;47.510;19.036;2022-09-16T04:31:35;23.00;58.60
35325;DHT22;35135;47.510;19.036;2022-09-16T04:34:02;23.00;58.30
35325;DHT22;35135;47.510;19.036;2022-09-16T04:36:28;23.10;58.40
35325;DHT22;35135;47.510;19.036;2022-09-16T04:38:53;23.10;59.00
35325;DHT22;35135;47.510;19.036;2022-09-16T04:41:21;23.10;57.80
35325;DHT22;35135;47.510;19.036;2022-09-16T04:43:52;23.10;58.00
35325;DHT22;35135;47.510;19.036;2022-09-16T04:46:18;23.10;57.60
35325;DHT22;35135;47.510;19.036;2022-09-16T04:48:48;23.10;57.70
35325;DHT22;35135;47.510;19.036;2022-09-16T04:51:14;23.00;58.20
35325;DHT22;35135;47.510;19.036;2022-09-16T04:53:41;23.00;58.10
35325;DHT22;35135;47.510;19.036;2022-09-16T04:56:21;23.00;58.30
35325;DHT22;35135;47.510;19.036;2022-09-16T04:58:49;23.00;58.30
35325;DHT22;35135;47.510;19.036;2022-09-16T05:01:20;23.00;58.30
35325;DHT22;35135;47.510;19.036;2022-09-16T05:03:48;23.00;58.40
35325;DHT22;35135;47.510;19.036;2022-09-16T05:06:26;23.10;58.50
35325;DHT22;35135;47.510;19.036;2022-09-16T05:08:53;23.10;57.90
35325;DHT22;35135;47.510;19.036;2022-09-16T05:11:24;23.20;58.40
35325;DHT22;35135;47.510;19.036;2022-09-16T05:13:50;23.20;57.90
35325;DHT22;35135;47.510;19.036;2022-09-16T05:16:18;23.20;58.50
35325;DHT22;35135;47.510;19.036;2022-09-16T05:18:46;23.20;58.10
35325;DHT22;35135;47.510;19.036;2022-09-16T05:21:17;23.20;58.50
35325;DHT22;35135;47.510;19.036;2022-09-16T05:23:43;23.30;58.30
35325;DHT22;35135;47.510;19.036;2022-09-16T05:26:11;23.30;58.50
35325;DHT22;35135;47.510;19.036;2022-09-16T05:28:37;23.30;58.40
35325;DHT22;35135;47.510;19.036;2022-09-16T05:31:24;23.40;58.30
35325;DHT22;35135;47.510;19.036;2022-09-16T05:33:55;23.40;57.70
35325;DHT22;35135;47.510;19.036;2022-09-16T05:36:22;23.40;57.50
35325;DHT22;35135;47.510;19.036;2022-09-16T05:38:48;23.30;58.40
35325;DHT22;35135;47.510;19.036;2022-09-16T05:41:14;23.30;57.70
35325;DHT22;35135;47.510;19.036;2022-09-16T05:43:40;23.20;58.00
35325;DHT22;35135;47.510;19.036;2022-09-16T05:46:06;23.20;58.20
35325;DHT22;35135;47.510;19.036;2022-09-16T05:48:33;23.20;58.30
35325;DHT22;35135;47.510;19.036;2022-09-16T05:51:04;23.20;58.40
35325;DHT22;35135;47.510;19.036;2022-09-16T05:53:33;23.10;58.40
35325;DHT22;35135;47.510;19.036;2022-09-16T05:56:02;23.10;57.80
35325;DHT22;35135;47.510;19.036;2022-09-16T05:58:30;23.20;58.10
35325;DHT22;35135;47.510;19.036;2022-09-16T06:03:31;23.10;58.10
35325;DHT22;35135;47.510;19.036;2022-09-16T06:09:08;23.20;57.90
35325;DHT22;35135;47.510;19.036;2022-09-16T06:11:45;23.20;56.90
35325;DHT22;35135;47.510;19.036;2022-09-16T06:14:12;23.20;57.90
35325;DHT22;35135;47.510;19.036;2022-09-16T06:16:38;23.20;57.90
35325;DHT22;35135;47.510;19.036;2022-09-16T06:19:06;23.20;57.30
35325;DHT22;35135;47.510;19.036;2022-09-16T06:21:35;23.20;57.60
35325;DHT22;35135;47.510;19.036;2022-09-16T06:24:02;23.20;56.80
35325;DHT22;35135;47.510;19.036;2022-09-16T06:26:28;23.20;56.60
35325;DHT22;35135;47.510;19.036;2022-09-16T06:28:54;23.10;57.90
35325;DHT22;35135;47.510;19.036;2022-09-16T06:31:22;23.10;57.60
35325;DHT22;35135;47.510;19.036;2022-09-16T06:33:49;23.10;57.50
35325;DHT22;35135;47.510;19.036;2022-09-16T06:36:22;23.10;57.50
35325;DHT22;35135;47.510;19.036;2022-09-16T06:38:49;23.10;57.40
35325;DHT22;35135;47.510;19.036;2022-09-16T06:41:16;23.20;57.40
35325;DHT22;35135;47.510;19.036;2022-09-16T06:43:43;23.20;57.30
35325;DHT22;35135;47.510;19.036;2022-09-16T06:46:16;23.30;57.00
35325;DHT22;35135;47.510;19.036;2022-09-16T06:48:43;23.30;56.90
35325;DHT22;35135;47.510;19.036;2022-09-16T06:51:12;23.30;56.70
35325;DHT22;35135;47.510;19.036;2022-09-16T06:53:39;23.30;56.70
35325;DHT22;35135;47.510;19.036;2022-09-16T06:56:07;23.40;56.50
35325;DHT22;35135;47.510;19.036;2022-09-16T06:58:36;23.30;56.30
35325;DHT22;35135;47.510;19.036;2022-09-16T07:01:21;23.30;56.10
35325;DHT22;35135;47.510;19.036;2022-09-16T07:03:49;23.30;55.80
35325;DHT22;35135;47.510;19.036;2022-09-16T07:06:16;23.20;56.00
35325;DHT22;35135;47.510;19.036;2022-09-16T07:08:43;23.30;56.10
35325;DHT22;35135;47.510;19.036;2022-09-16T07:11:17;23.30;56.10
35325;DHT22;35135;47.510;19.036;2022-09-16T07:13:44;23.30;55.80
35325;DHT22;35135;47.510;19.036;2022-09-16T07:16:16;23.30;55.80
35325;DHT22;35135;47.510;19.036;2022-09-16T07:18:43;23.30;55.60
35325;DHT22;35135;47.510;19.036;2022-09-16T07:21:12;23.20;55.20
35325;DHT22;35135;47.510;19.036;2022-09-16T07:23:38;23.20;55.80
35325;DHT22;35135;47.510;19.036;2022-09-16T07:26:07;23.20;55.40
35325;DHT22;35135;47.510;19.036;2022-09-16T07:28:34;23.10;55.90
35325;DHT22;35135;47.510;19.036;2022-09-16T07:31:01;23.10;55.60
35325;DHT22;35135;47.510;19.036;2022-09-16T07:33:28;23.10;56.00
35325;DHT22;35135;47.510;19.036;2022-09-16T07:35:57;23.20;56.00
35325;DHT22;35135;47.510;19.036;2022-09-16T07:38:23;23.20;55.70
35325;DHT22;35135;47.510;19.036;2022-09-16T07:40:49;23.20;55.90
35325;DHT22;35135;47.510;19.036;2022-09-16T07:43:14;23.30;55.70
35325;DHT22;35135;47.510;19.036;2022-09-16T07:45:40;23.30;55.20
35325;DHT22;35135;47.510;19.036;2022-09-16T07:48:05;23.30;55.00
35325;DHT22;35135;47.510;19.036;2022-09-16T07:50:31;23.30;55.40
35325;DHT22;35135;47.510;19.036;2022-09-16T07:52:57;23.20;55.40
35325;DHT22;35135;47.510;19.036;2022-09-16T07:55:22;23.20;55.50
35325;DHT22;35135;47.510;19.036;2022-09-16T07:57:48;23.30;55.20
35325;DHT22;35135;47.510;19.036;2022-09-16T08:00:14;23.30;55.10
35325;DHT22;35135;47.510;19.036;2022-09-16T08:02:41;23.30;54.70
35325;DHT22;35135;47.510;19.036;2022-09-16T08:05:07;23.30;54.50
35325;DHT22;35135;47.510;19.036;2022-09-16T08:07:33;23.30;54.50
35325;DHT22;35135;47.510;19.036;2022-09-16T08:09:59;23.30;54.50
35325;DHT22;35135;47.510;19.036;2022-09-16T08:12:25;23.20;54.20
35325;DHT22;35135;47.510;19.036;2022-09-16T08:14:51;23.20;54.80
35325;DHT22;35135;47.510;19.036;2022-09-16T08:17:16;23.20;53.80
35325;DHT22;35135;47.510;19.036;2022-09-16T08:19:42;23.10;55.10
35325;DHT22;35135;47.510;19.036;2022-09-16T08:22:07;23.10;54.60
35325;DHT22;35135;47.510;19.036;2022-09-16T08:24:33;23.10;54.60
35325;DHT22;35135;47.510;19.036;2022-09-16T08:26:59;23.10;54.80
35325;DHT22;35135;47.510;19.036;2022-09-16T08:29:24;23.10;54.70
35325;DHT22;35135;47.510;19.036;2022-09-16T08:31:50;23.10;54.70
35325;DHT22;35135;47.510;19.036;2022-09-16T08:34:16;23.10;54.30
35325;DHT22;35135;47.510;19.036;2022-09-16T08:36:42;23.10;54.60
35325;DHT22;35135;47.510;19.036;2022-09-16T08:39:09;23.20;54.30
35325;DHT22;35135;47.510;19.036;2022-09-16T08:41:52;23.20;54.50
35325;DHT22;35135;47.510;19.036;2022-09-16T08:44:30;23.20;54.50
35325;DHT22;35135;47.510;19.036;2022-09-16T08:47:21;23.20;54.10
35325;DHT22;35135;47.510;19.036;2022-09-16T08:49:53;23.20;54.30
35325;DHT22;35135;47.510;19.036;2022-09-16T08:52:33;23.10;54.20
35325;DHT22;35135;47.510;19.036;2022-09-16T08:55:07;23.10;54.60
35325;DHT22;35135;47.510;19.036;2022-09-16T08:57:40;23.20;54.10
35325;DHT22;35135;47.510;19.036;2022-09-16T09:00:16;23.20;54.30
35325;DHT22;35135;47.510;19.036;2022-09-16T09:03:24;23.20;54.20
35325;DHT22;35135;47.510;19.036;2022-09-16T09:05:56;23.20;54.20
35325;DHT22;35135;47.510;19.036;2022-09-16T09:08:55;23.20;54.00
35325;DHT22;35135;47.510;19.036;2022-09-16T09:11:41;23.10;54.00
35325;DHT22;35135;47.510;19.036;2022-09-16T09:16:47;23.10;53.70
35325;DHT22;35135;47.510;19.036;2022-09-16T09:22:21;23.10;54.00
35325;DHT22;35135;47.510;19.036;2022-09-16T09:30:10;23.10;54.20
35325;DHT22;35135;47.510;19.036;2022-09-16T09:32:44;23.20;53.90
35325;DHT22;35135;47.510;19.036;2022-09-16T09:35:35;23.20;53.80
35325;DHT22;35135;47.510;19.036;2022-09-16T09:38:31;23.20;53.50
35325;DHT22;35135;47.510;19.036;2022-09-16T09:46:43;23.10;53.60
35325;DHT22;35135;47.510;19.036;2022-09-16T09:52:06;23.20;52.90
35325;DHT22;35135;47.510;19.036;2022-09-16T09:54:37;23.20;52.50
35325;DHT22;35135;47.510;19.036;2022-09-16T09:57:32;23.20;52.80
35325;DHT22;35135;47.510;19.036;2022-09-16T10:00:19;23.20;52.20
35325;DHT22;35135;47.510;19.036;2022-09-16T10:02:46;23.20;52.80
35325;DHT22;35135;47.510;19.036;2022-09-16T10:05:24;23.20;52.40
35325;DHT22;35135;47.510;19.036;2022-09-16T10:13:20;23.20;51.40
35325;DHT22;35135;47.510;19.036;2022-09-16T10:15:47;23.20;52.10
35325;DHT22;35135;47.510;19.036;2022-09-16T10:18:28;23.20;51.90
35325;DHT22;35135;47.510;19.036;2022-09-16T10:20:59;23.20;51.60
35325;DHT22;35135;47.510;19.036;2022-09-16T10:23:26;23.10;52.00
35325;DHT22;35135;47.510;19.036;2022-09-16T10:26:21;23.20;51.90
35325;DHT22;35135;47.510;19.036;2022-09-16T10:29:14;23.20;51.60
35325;DHT22;35135;47.510;19.036;2022-09-16T10:31:40;23.20;51.90
35325;DHT22;35135;47.510;19.036;2022-09-16T10:34:28;23.20;52.00
35325;DHT22;35135;47.510;19.036;2022-09-16T10:39:44;23.30;50.80
35325;DHT22;35135;47.510;19.036;2022-09-16T10:42:25;23.20;51.40
35325;DHT22;35135;47.510;19.036;2022-09-16T10:44:58;23.20;51.40
35325;DHT22;35135;47.510;19.036;2022-09-16T10:47:30;23.30;51.50
35325;DHT22;35135;47.510;19.036;2022-09-16T10:50:02;23.30;51.00
35325;DHT22;35135;47.510;19.036;2022-09-16T10:52:31;23.30;50.00
35325;DHT22;35135;47.510;19.036;2022-09-16T10:55:31;23.30;50.50
35325;DHT22;35135;47.510;19.036;2022-09-16T11:00:40;23.30;50.50
35325;DHT22;35135;47.510;19.036;2022-09-16T11:14:34;23.30;50.30
35325;DHT22;35135;47.510;19.036;2022-09-16T11:23:08;23.30;49.90
35325;DHT22;35135;47.510;19.036;2022-09-16T11:25:47;23.30;50.00
35325;DHT22;35135;47.510;19.036;2022-09-16T11:34:07;23.30;49.30
35325;DHT22;35135;47.510;19.036;2022-09-16T11:46:01;23.40;50.50
35325;DHT22;35135;47.510;19.036;2022-09-16T11:56:49;23.50;49.40
35325;DHT22;35135;47.510;19.036;2022-09-16T12:02:24;23.40;49.50
35325;DHT22;35135;47.510;19.036;2022-09-16T12:05:02;23.50;49.60
35325;DHT22;35135;47.510;19.036;2022-09-16T12:07:42;23.50;49.10
35325;DHT22;35135;47.510;19.036;2022-09-16T12:10:22;23.50;49.40
35325;DHT22;35135;47.510;19.036;2022-09-16T12:12:53;23.50;49.20
35325;DHT22;35135;47.510;19.036;2022-09-16T12:15:31;23.50;50.10
35325;DHT22;35135;47.510;19.036;2022-09-16T12:18:05;23.50;50.10
35325;DHT22;35135;47.510;19.036;2022-09-16T12:20:40;23.50;49.00
35325;DHT22;35135;47.510;19.036;2022-09-16T12:28:40;23.50;49.00
35325;DHT22;35135;47.510;19.036;2022-09-16T12:31:34;23.50;49.00
35325;DHT22;35135;47.510;19.036;2022-09-16T12:34:07;23.40;49.10
35325;DHT22;35135;47.510;19.036;2022-09-16T12:36:37;23.40;49.40
35325;DHT22;35135;47.510;19.036;2022-09-16T12:39:04;23.40;49.60
35325;DHT22;35135;47.510;19.036;2022-09-16T12:53:01;23.40;49.60
35325;DHT22;35135;47.510;19.036;2022-09-16T13:03:50;23.50;49.30
35325;DHT22;35135;47.510;19.036;2022-09-16T13:06:24;23.50;49.50
35325;DHT22;35135;47.510;19.036;2022-09-16T13:08:50;23.50;49.50
35325;DHT22;35135;47.510;19.036;2022-09-16T13:11:24;23.50;49.20
35325;DHT22;35135;47.510;19.036;2022-09-16T13:13:53;23.50;49.30
35325;DHT22;35135;47.510;19.036;2022-09-16T13:16:29;23.50;49.20
35325;DHT22;35135;47.510;19.036;2022-09-16T13:19:24;23.50;49.40
35325;DHT22;35135;47.510;19.036;2022-09-16T13:24:42;23.40;49.60
35325;DHT22;35135;47.510;19.036;2022-09-16T13:27:37;23.40;49.60
35325;DHT22;35135;47.510;19.036;2022-09-16T13:32:43;23.40;49.20
35325;DHT22;35135;47.510;19.036;2022-09-16T13:37:51;23.40;49.40
35325;DHT22;35135;47.510;19.036;2022-09-16T13:40:20;23.40;49.60
35325;DHT22;35135;47.510;19.036;2022-09-16T13:42:46;23.40;50.00
35325;DHT22;35135;47.510;19.036;2022-09-16T13:45:32;23.40;50.20
35325;DHT22;35135;47.510;19.036;2022-09-16T13:50:37;23.50;50.00
35325;DHT22;35135;47.510;19.036;2022-09-16T13:53:21;23.50;50.10
35325;DHT22;35135;47.510;19.036;2022-09-16T13:55:49;23.50;49.80
35325;DHT22;35135;47.510;19.036;2022-09-16T13:58:28;23.50;50.10
35325;DHT22;35135;47.510;19.036;2022-09-16T14:12:34;23.50;50.20
35325;DHT22;35135;47.510;19.036;2022-09-16T14:15:04;23.50;49.70
35325;DHT22;35135;47.510;19.036;2022-09-16T14:17:38;23.50;49.80
35325;DHT22;35135;47.510;19.036;2022-09-16T14:20:14;23.50;49.50
35325;DHT22;35135;47.510;19.036;2022-09-16T14:22:41;23.50;49.00
35325;DHT22;35135;47.510;19.036;2022-09-16T14:25:34;23.50;49.60
35325;DHT22;35135;47.510;19.036;2022-09-16T14:28:23;23.40;49.60
35325;DHT22;35135;47.510;19.036;2022-09-16T14:30:59;23.40;49.40
35325;DHT22;35135;47.510;19.036;2022-09-16T14:33:29;23.40;49.70
35325;DHT22;35135;47.510;19.036;2022-09-16T14:35:56;23.40;49.60
35325;DHT22;35135;47.510;19.036;2022-09-16T14:38:34;23.40;50.00
35325;DHT22;35135;47.510;19.036;2022-09-16T14:41:00;23.40;49.40
35325;DHT22;35135;47.510;19.036;2022-09-16T14:43:30;23.40;49.50
35325;DHT22;35135;47.510;19.036;2022-09-16T14:45:57;23.40;49.20
35325;DHT22;35135;47.510;19.036;2022-09-16T14:48:32;23.30;49.40
35325;DHT22;35135;47.510;19.036;2022-09-16T14:50:59;23.30;49.70
35325;DHT22;35135;47.510;19.036;2022-09-16T14:53:31;23.30;49.80
35325;DHT22;35135;47.510;19.036;2022-09-16T14:55:58;23.30;49.80
35325;DHT22;35135;47.510;19.036;2022-09-16T14:58:27;23.30;50.00
35325;DHT22;35135;47.510;19.036;2022-09-16T15:01:15;23.30;50.00
35325;DHT22;35135;47.510;19.036;2022-09-16T15:04:01;23.30;50.00
35325;DHT22;35135;47.510;19.036;2022-09-16T15:06:34;23.30;50.10
35325;DHT22;35135;47.510;19.036;2022-09-16T15:11:58;23.30;50.10
35325;DHT22;35135;47.510;19.036;2022-09-16T15:14:25;23.30;50.20
35325;DHT22;35135;47.510;19.036;2022-09-16T15:16:59;23.30;50.40
35325;DHT22;35135;47.510;19.036;2022-09-16T15:19:33;23.30;51.10
35325;DHT22;35135;47.510;19.036;2022-09-16T15:22:00;23.20;50.70
35325;DHT22;35135;47.510;19.036;2022-09-16T15:24:30;23.30;50.90
35325;DHT22;35135;47.510;19.036;2022-09-16T15:26:58;23.30;51.00
35325;DHT22;35135;47.510;19.036;2022-09-16T15:31:49;23.30;51.40
35325;DHT22;35135;47.510;19.036;2022-09-16T15:34:19;23.30;51.00
35325;DHT22;35135;47.510;19.036;2022-09-16T15:36:48;23.30;51.00
35325;DHT22;35135;47.510;19.036;2022-09-16T15:41:47;23.20;51.80
35325;DHT22;35135;47.510;19.036;2022-09-16T15:44:26;23.30;51.60
35325;DHT22;35135;47.510;19.036;2022-09-16T15:46:52;23.30;51.80
35325;DHT22;35135;47.510;19.036;2022-09-16T15:49:18;23.20;52.00
35325;DHT22;35135;47.510;19.036;2022-09-16T15:51:46;23.20;52.20
35325;DHT22;35135;47.510;19.036;2022-09-16T15:59:36;23.20;52.40
35325;DHT22;35135;47.510;19.036;2022-09-16T16:02:28;23.30;52.60
35325;DHT22;35135;47.510;19.036;2022-09-16T16:05:13;23.20;52.50
35325;DHT22;35135;47.510;19.036;2022-09-16T16:07:40;23.20;52.70
35325;DHT22;35135;47.510;19.036;2022-09-16T16:10:33;23.20;52.70
35325;DHT22;35135;47.510;19.036;2022-09-16T16:13:02;23.20;52.80
35325;DHT22;35135;47.510;19.036;2022-09-16T16:15:36;23.20;53.30
35325;DHT22;35135;47.510;19.036;2022-09-16T16:18:05;23.20;53.20
35325;DHT22;35135;47.510;19.036;2022-09-16T16:20:32;23.30;52.80
35325;DHT22;35135;47.510;19.036;2022-09-16T16:22:59;23.30;53.00
35325;DHT22;35135;47.510;19.036;2022-09-16T16:25:25;23.30;53.00
35325;DHT22;35135;47.510;19.036;2022-09-16T16:27:51;23.30;52.90
35325;DHT22;35135;47.510;19.036;2022-09-16T16:30:17;23.30;52.80
35325;DHT22;35135;47.510;19.036;2022-09-16T16:32:44;23.30;52.70
35325;DHT22;35135;47.510;19.036;2022-09-16T16:35:12;23.30;52.60
35325;DHT22;35135;47.510;19.036;2022-09-16T16:37:40;23.40;52.40
35325;DHT22;35135;47.510;19.036;2022-09-16T16:40:07;23.20;52.40
35325;DHT22;35135;47.510;19.036;2022-09-16T16:42:34;23.10;52.80
35325;DHT22;35135;47.510;19.036;2022-09-16T16:45:00;23.00;53.10
35325;DHT22;35135;47.510;19.036;2022-09-16T16:47:26;23.00;53.40
35325;DHT22;35135;47.510;19.036;2022-09-16T16:49:51;23.00;53.40
35325;DHT22;35135;47.510;19.036;2022-09-16T16:52:17;23.10;53.30
35325;DHT22;35135;47.510;19.036;2022-09-16T16:54:42;23.10;53.20
35325;DHT22;35135;47.510;19.036;2022-09-16T16:57:09;23.10;53.10
35325;DHT22;35135;47.510;19.036;2022-09-16T16:59:35;23.10;53.10
35325;DHT22;35135;47.510;19.036;2022-09-16T17:02:01;23.20;53.20
35325;DHT22;35135;47.510;19.036;2022-09-16T17:04:28;23.20;53.20
35325;DHT22;35135;47.510;19.036;2022-09-16T17:06:54;23.20;53.20
35325;DHT22;35135;47.510;19.036;2022-09-16T17:09:20;23.30;53.20
35325;DHT22;35135;47.510;19.036;2022-09-16T17:11:54;23.30;53.00
35325;DHT22;35135;47.510;19.036;2022-09-16T17:14:21;23.30;53.00
35325;DHT22;35135;47.510;19.036;2022-09-16T17:16:47;23.30;52.90
35325;DHT22;35135;47.510;19.036;2022-09-16T17:19:14;23.30;53.10
35325;DHT22;35135;47.510;19.036;2022-09-16T17:21:42;23.30;53.10
35325;DHT22;35135;47.510;19.036;2022-09-16T17:24:08;23.20;53.20
35325;DHT22;35135;47.510;19.036;2022-09-16T17:26:33;23.20;53.20
35325;DHT22;35135;47.510;19.036;2022-09-16T17:28:59;23.20;53.20
35325;DHT22;35135;47.510;19.036;2022-09-16T17:31:30;23.20;53.20
35325;DHT22;35135;47.510;19.036;2022-09-16T17:33:59;23.20;53.00
35325;DHT22;35135;47.510;19.036;2022-09-16T17:36:31;23.20;53.20
35325;DHT22;35135;47.510;19.036;2022-09-16T17:39:03;23.10;53.10
35325;DHT22;35135;47.510;19.036;2022-09-16T17:41:30;23.00;53.40
35325;DHT22;35135;47.510;19.036;2022-09-16T17:43:57;23.00;53.50
35325;DHT22;35135;47.510;19.036;2022-09-16T17:46:24;23.00;53.60
35325;DHT22;35135;47.510;19.036;2022-09-16T17:48:59;23.00;53.50
35325;DHT22;35135;47.510;19.036;2022-09-16T17:51:24;23.10;53.80
35325;DHT22;35135;47.510;19.036;2022-09-16T17:53:50;23.10;53.70
35325;DHT22;35135;47.510;19.036;2022-09-16T17:56:16;23.10;53.60
35325;DHT22;35135;47.510;19.036;2022-09-16T17:58:43;23.20;53.60
35325;DHT22;35135;47.510;19.036;2022-09-16T18:01:11;23.20;53.50
35325;DHT22;35135;47.510;19.036;2022-09-16T18:03:37;23.20;53.50
35325;DHT22;35135;47.510;19.036;2022-09-16T18:06:17;23.20;53.50
35325;DHT22;35135;47.510;19.036;2022-09-16T18:08:43;23.30;53.40
35325;DHT22;35135;47.510;19.036;2022-09-16T18:11:11;23.30;53.40
35325;DHT22;35135;47.510;19.036;2022-09-16T18:13:37;23.30;53.30
35325;DHT22;35135;47.510;19.036;2022-09-16T18:16:12;23.30;53.50
35325;DHT22;35135;47.510;19.036;2022-09-16T18:18:39;23.30;53.50
35325;DHT22;35135;47.510;19.036;2022-09-16T18:21:07;23.40;53.50
35325;DHT22;35135;47.510;19.036;2022-09-16T18:23:33;23.40;53.70
35325;DHT22;35135;47.510;19.036;2022-09-16T18:26:07;23.40;53.70
35325;DHT22;35135;47.510;19.036;2022-09-16T18:28:43;23.40;53.60
35325;DHT22;35135;47.510;19.036;2022-09-16T18:31:20;23.50;53.80
35325;DHT22;35135;47.510;19.036;2022-09-16T18:33:45;23.50;53.60
35325;DHT22;35135;47.510;19.036;2022-09-16T18:36:14;23.50;53.40
35325;DHT22;35135;47.510;19.036;2022-09-16T18:38:41;23.50;53.30
35325;DHT22;35135;47.510;19.036;2022-09-16T18:41:15;23.50;53.50
35325;DHT22;35135;47.510;19.036;2022-09-16T18:43:43;23.50;53.50
35325;DHT22;35135;47.510;19.036;2022-09-16T18:46:30;23.50;53.40
35325;DHT22;35135;47.510;19.036;2022-09-16T18:48:57;23.50;53.30
35325;DHT22;35135;47.510;19.036;2022-09-16T18:51:24;23.50;53.30